EXS29EM EGCC-LGSM
Flight info
| Callsign | EXS29EM |
|---|---|
| Flight time | N/A |
| Altitude | 33000 |
| Route | SONEX UL975 DESIG L603 DOLAS DCT NAVPI DCT NOLRU DCT DOJOH DCT DODEN DCT NEGIX DCT DINKU M867 XERUM DCT BAVAX DCT RADIZ DCT ABISO DCT NEMEK DCT GACMO DCT AKIKA DCT ENFAR DCT TALAS UN130 MES L609 PIPEN Y94 ORMOS |
| Aircraft | A21N/M-SDE3FGHIRWY/LB1 |
Departure
| Time | N/A |
|---|---|
| Airport | Manchester Airport (EGCC) |
Arrival
| Time | 2026-05-07 18:46 |
|---|---|
| Airport | Samos Airport (LGSM) |
| Time | Latitude | Longitude | Altitude | Speed | Heading |
|---|---|---|---|---|---|
| 2026-05-07 18:11 | 39.98175 | 23.64276 | 33057 ft | 541 kts | 136° |
| 2026-05-07 18:11 | 39.94698 | 23.68992 | 33060 ft | 541 kts | 137° |
| 2026-05-07 18:12 | 39.89503 | 23.76013 | 33059 ft | 541 kts | 137° |
| 2026-05-07 18:12 | 39.84271 | 23.83081 | 33059 ft | 542 kts | 136° |
| 2026-05-07 18:13 | 39.79058 | 23.90103 | 33060 ft | 541 kts | 136° |
| 2026-05-07 18:13 | 39.73841 | 23.97118 | 33060 ft | 542 kts | 136° |
| 2026-05-07 18:14 | 39.68628 | 24.04117 | 33061 ft | 541 kts | 137° |
| 2026-05-07 18:14 | 39.63367 | 24.11149 | 33066 ft | 541 kts | 136° |
| 2026-05-07 18:15 | 39.58140 | 24.18129 | 33068 ft | 540 kts | 136° |
| 2026-05-07 18:15 | 39.52909 | 24.25104 | 33066 ft | 542 kts | 136° |
| 2026-05-07 18:16 | 39.47665 | 24.32068 | 33069 ft | 541 kts | 137° |
| 2026-05-07 18:16 | 39.42422 | 24.39020 | 33063 ft | 539 kts | 135° |
| 2026-05-07 18:17 | 39.37181 | 24.45942 | 33066 ft | 540 kts | 135° |
| 2026-05-07 18:17 | 39.31985 | 24.52834 | 33068 ft | 539 kts | 136° |
| 2026-05-07 18:18 | 39.26792 | 24.59766 | 33073 ft | 539 kts | 135° |
| 2026-05-07 18:18 | 39.21594 | 24.66729 | 33066 ft | 538 kts | 136° |
| 2026-05-07 18:19 | 39.16377 | 24.73671 | 33070 ft | 539 kts | 136° |
| 2026-05-07 18:19 | 39.11286 | 24.80434 | 33072 ft | 539 kts | 135° |
| 2026-05-07 18:20 | 39.06045 | 24.87286 | 33067 ft | 539 kts | 137° |
| 2026-05-07 18:20 | 39.00777 | 24.94094 | 33059 ft | 540 kts | 136° |
| 2026-05-07 18:21 | 38.95480 | 25.00947 | 33074 ft | 540 kts | 137° |
| 2026-05-07 18:21 | 38.90194 | 25.07757 | 33093 ft | 541 kts | 136° |
| 2026-05-07 18:22 | 38.84885 | 25.14596 | 33089 ft | 539 kts | 136° |
| 2026-05-07 18:22 | 38.79634 | 25.21359 | 33081 ft | 538 kts | 136° |
| 2026-05-07 18:23 | 38.74330 | 25.28158 | 33087 ft | 539 kts | 135° |
| 2026-05-07 18:23 | 38.69069 | 25.34893 | 33096 ft | 537 kts | 136° |
| 2026-05-07 18:24 | 38.63820 | 25.41591 | 32705 ft | 536 kts | 135° |
| 2026-05-07 18:24 | 38.61174 | 25.44969 | 32177 ft | 530 kts | 136° |
| 2026-05-07 18:24 | 38.58624 | 25.48223 | 31687 ft | 521 kts | 136° |
| 2026-05-07 18:24 | 38.56048 | 25.51495 | 31183 ft | 517 kts | 135° |
| 2026-05-07 18:25 | 38.53531 | 25.54695 | 30665 ft | 512 kts | 136° |
| 2026-05-07 18:25 | 38.51014 | 25.57895 | 30108 ft | 508 kts | 136° |
| 2026-05-07 18:25 | 38.48515 | 25.61064 | 29536 ft | 504 kts | 136° |
| 2026-05-07 18:25 | 38.46060 | 25.64173 | 28974 ft | 500 kts | 136° |
| 2026-05-07 18:26 | 38.43606 | 25.67279 | 28382 ft | 496 kts | 136° |
| 2026-05-07 18:26 | 38.41295 | 25.70201 | 27767 ft | 494 kts | 136° |
| 2026-05-07 18:26 | 38.38838 | 25.73309 | 27041 ft | 494 kts | 136° |
| 2026-05-07 18:26 | 38.36416 | 25.76366 | 26328 ft | 493 kts | 136° |
| 2026-05-07 18:27 | 38.33992 | 25.79431 | 25575 ft | 493 kts | 136° |
| 2026-05-07 18:27 | 38.31560 | 25.82507 | 24776 ft | 494 kts | 136° |
| 2026-05-07 18:27 | 38.29137 | 25.85570 | 24001 ft | 493 kts | 136° |
| 2026-05-07 18:27 | 38.27541 | 25.87588 | 23676 ft | 487 kts | 136° |
| 2026-05-07 18:28 | 38.24303 | 25.91541 | 22989 ft | 478 kts | 139° |
| 2026-05-07 18:28 | 38.21825 | 25.94314 | 22476 ft | 473 kts | 140° |
| 2026-05-07 18:28 | 38.19353 | 25.97055 | 21905 ft | 469 kts | 140° |
| 2026-05-07 18:28 | 38.16919 | 25.99748 | 21352 ft | 465 kts | 140° |
| 2026-05-07 18:29 | 38.14505 | 26.02420 | 20785 ft | 462 kts | 139° |
| 2026-05-07 18:29 | 38.12087 | 26.05094 | 20217 ft | 459 kts | 139° |
| 2026-05-07 18:29 | 38.09692 | 26.07742 | 19646 ft | 456 kts | 139° |
| 2026-05-07 18:29 | 38.07401 | 26.10468 | 19056 ft | 454 kts | 134° |
| 2026-05-07 18:30 | 38.05363 | 26.13526 | 18449 ft | 453 kts | 126° |
| 2026-05-07 18:30 | 38.03624 | 26.16847 | 17869 ft | 450 kts | 121° |
| 2026-05-07 18:30 | 38.02037 | 26.20229 | 17303 ft | 447 kts | 120° |
| 2026-05-07 18:30 | 38.00485 | 26.23606 | 16781 ft | 442 kts | 119° |
| 2026-05-07 18:31 | 37.98956 | 26.26917 | 16304 ft | 437 kts | 120° |
| 2026-05-07 18:31 | 37.97420 | 26.30211 | 15810 ft | 433 kts | 120° |
| 2026-05-07 18:31 | 37.95897 | 26.33463 | 15302 ft | 429 kts | 120° |
| 2026-05-07 18:31 | 37.94372 | 26.36696 | 14768 ft | 425 kts | 120° |
| 2026-05-07 18:32 | 37.92867 | 26.39884 | 14229 ft | 422 kts | 120° |
| 2026-05-07 18:32 | 37.91356 | 26.43085 | 13673 ft | 420 kts | 120° |
| 2026-05-07 18:32 | 37.89865 | 26.46237 | 13138 ft | 417 kts | 120° |
| 2026-05-07 18:32 | 37.88392 | 26.49350 | 12682 ft | 410 kts | 120° |
| 2026-05-07 18:33 | 37.86986 | 26.52317 | 12459 ft | 386 kts | 120° |
| 2026-05-07 18:33 | 37.85651 | 26.55130 | 12242 ft | 360 kts | 120° |
| 2026-05-07 18:33 | 37.84401 | 26.57765 | 12056 ft | 343 kts | 120° |
| 2026-05-07 18:33 | 37.83174 | 26.60346 | 11876 ft | 338 kts | 119° |
| 2026-05-07 18:34 | 37.81968 | 26.62856 | 11620 ft | 339 kts | 122° |
| 2026-05-07 18:34 | 37.80345 | 26.65023 | 11110 ft | 341 kts | 146° |
| 2026-05-07 18:34 | 37.78206 | 26.66238 | 10674 ft | 337 kts | 169° |
| 2026-05-07 18:34 | 37.75911 | 26.66318 | 10356 ft | 328 kts | 191° |
| 2026-05-07 18:35 | 37.73761 | 26.65453 | 10112 ft | 327 kts | 207° |
| 2026-05-07 18:35 | 37.71754 | 26.64142 | 9655 ft | 328 kts | 209° |
| 2026-05-07 18:35 | 37.69643 | 26.62999 | 9186 ft | 329 kts | 199° |
| 2026-05-07 18:35 | 37.67430 | 26.62359 | 8806 ft | 326 kts | 188° |
| 2026-05-07 18:36 | 37.65191 | 26.62216 | 8415 ft | 315 kts | 178° |
| 2026-05-07 18:36 | 37.63091 | 26.62489 | 8335 ft | 295 kts | 171° |
| 2026-05-07 18:36 | 37.61127 | 26.63055 | 8302 ft | 279 kts | 163° |
| 2026-05-07 18:36 | 37.59338 | 26.63831 | 8260 ft | 269 kts | 158° |
| 2026-05-07 18:37 | 37.57636 | 26.64811 | 8208 ft | 268 kts | 152° |
| 2026-05-07 18:37 | 37.56017 | 26.65978 | 8139 ft | 267 kts | 147° |
| 2026-05-07 18:37 | 37.54501 | 26.67296 | 7846 ft | 268 kts | 142° |
| 2026-05-07 18:37 | 37.53050 | 26.68798 | 7355 ft | 270 kts | 137° |
| 2026-05-07 18:38 | 37.51713 | 26.70438 | 6871 ft | 273 kts | 132° |
| 2026-05-07 18:38 | 37.50472 | 26.72230 | 6379 ft | 271 kts | 127° |
| 2026-05-07 18:38 | 37.49351 | 26.74145 | 5882 ft | 269 kts | 122° |
| 2026-05-07 18:38 | 37.48370 | 26.76137 | 5384 ft | 268 kts | 118° |
| 2026-05-07 18:39 | 37.47535 | 26.78232 | 4771 ft | 270 kts | 110° |
| 2026-05-07 18:39 | 37.47095 | 26.80520 | 4156 ft | 271 kts | 94° |
| 2026-05-07 18:39 | 37.47165 | 26.82889 | 3538 ft | 272 kts | 78° |
| 2026-05-07 18:39 | 37.47736 | 26.85099 | 3113 ft | 265 kts | 63° |
| 2026-05-07 18:40 | 37.48711 | 26.86979 | 2994 ft | 248 kts | 48° |
| 2026-05-07 18:40 | 37.49960 | 26.88418 | 2992 ft | 246 kts | 34° |
| 2026-05-07 18:40 | 37.51473 | 26.89443 | 2983 ft | 241 kts | 20° |
| 2026-05-07 18:40 | 37.53037 | 26.89946 | 2969 ft | 223 kts | 7° |
| 2026-05-07 18:41 | 37.54521 | 26.90077 | 2960 ft | 203 kts | 2° |
| 2026-05-07 18:41 | 37.55881 | 26.90133 | 2777 ft | 193 kts | 2° |
| 2026-05-07 18:41 | 37.57208 | 26.90184 | 2523 ft | 186 kts | 1° |
| 2026-05-07 18:41 | 37.58488 | 26.90237 | 2125 ft | 186 kts | 1° |
| 2026-05-07 18:42 | 37.59747 | 26.90295 | 1812 ft | 172 kts | 0° |
| 2026-05-07 18:42 | 37.60907 | 26.90348 | 1837 ft | 162 kts | 0° |
| 2026-05-07 18:42 | 37.62002 | 26.90400 | 1791 ft | 151 kts | 1° |
| 2026-05-07 18:42 | 37.63049 | 26.90448 | 1789 ft | 149 kts | 359° |
| 2026-05-07 18:43 | 37.64072 | 26.90273 | 1785 ft | 148 kts | 338° |
| 2026-05-07 18:43 | 37.64939 | 26.89581 | 1689 ft | 148 kts | 320° |
| 2026-05-07 18:43 | 37.65681 | 26.88673 | 1424 ft | 147 kts | 307° |
| 2026-05-07 18:43 | 37.66269 | 26.87631 | 1164 ft | 147 kts | 302° |
| 2026-05-07 18:44 | 37.66873 | 26.86597 | 961 ft | 146 kts | 315° |
| 2026-05-07 18:44 | 37.67710 | 26.85873 | 923 ft | 147 kts | 332° |
| 2026-05-07 18:44 | 37.68685 | 26.85776 | 836 ft | 148 kts | 30° |
| 2026-05-07 18:44 | 37.69044 | 26.86923 | 552 ft | 150 kts | 87° |
| 2026-05-07 18:45 | 37.69068 | 26.88237 | 356 ft | 149 kts | 90° |
| 2026-05-07 18:45 | 37.69010 | 26.89527 | 133 ft | 147 kts | 93° |
| 2026-05-07 18:45 | 37.68937 | 26.90780 | 30 ft | 126 kts | 92° |
| 2026-05-07 18:45 | 37.68884 | 26.91708 | 29 ft | 83 kts | 95° |
| 2026-05-07 18:46 | 37.68859 | 26.92197 | 28 ft | 28 kts | 91° |
| 2026-05-07 18:46 | 37.68866 | 26.92336 | 28 ft | 8 kts | 131° |
| 2026-05-07 18:46 | 37.68849 | 26.92302 | 27 ft | 7 kts | 277° |
| 2026-05-07 18:46 | 37.68856 | 26.92222 | 28 ft | 10 kts | 274° |
| 2026-05-07 18:47 | 37.68862 | 26.92113 | 28 ft | 14 kts | 274° |
| 2026-05-07 18:47 | 37.68869 | 26.91979 | 28 ft | 16 kts | 274° |
| 2026-05-07 18:47 | 37.68879 | 26.91824 | 29 ft | 18 kts | 274° |
| 2026-05-07 18:47 | 37.68889 | 26.91656 | 30 ft | 20 kts | 274° |
| 2026-05-07 18:48 | 37.68900 | 26.91474 | 30 ft | 21 kts | 274° |
| 2026-05-07 18:48 | 37.68930 | 26.91352 | 30 ft | 11 kts | 359° |
| 2026-05-07 18:48 | 37.69005 | 26.91380 | 31 ft | 11 kts | 9° |
| 2026-05-07 18:48 | 37.69046 | 26.91384 | 31 ft | 0 kts | 4° |